Rocky Mount Wilson Airport

Current Flights

Departures
Number Departure To Airline
Arrivals
Number Arrival From Airline
Info
Name: Rocky Mount Wilson Airport
Identifier:  RWI/KRWI
Local Time:  19. May 09:14
City
Rocky Mount
  United States

Flights per Day
0 flights
Distance: 370km (230mi)
Punctuality
50% (0 flights per day delayed)
Delay Average: 107 minutes
Current Weather
 19 C (Humidity: 93%)
  0kt (0km/h / 0mph) from 0°
  16km (10 mi.)
 
 METAR KRWI 190853Z AUTO 00000KT 10SM CLR 19/18 A3004 RMK AO2 SLP172 T01890178 53006

Current Delays

Departures
N/A
Arrivals
N/A

Destinations

Top Destinations
Airport Flights
per week
Seats
per week
  Raleigh-Durham (RDU) <1 - 0 0
  Greensboro (GSO) <1 - 0 0

Airlines & Planes

Top Airlines
Airline Flights
per Day
Seats
per Day
  Novair <1 -
Jet Charter Inc ( Franklin Lakes Nj ) <1 -
Top Plane Types
Manufacturer Model Flights Seats
Beech 58 0.1/day - 0
Eurocopter EC135 T1 0.0/day - 0